createdAt,value
2022-10-19T00:01:32.837Z,87.95
2022-10-19T00:03:38.511Z,87.89
2022-10-19T00:05:43.183Z,87.66
2022-10-19T00:07:47.836Z,87.77
2022-10-19T00:09:52.751Z,87.79
2022-10-19T00:11:57.399Z,87.55
2022-10-19T00:14:03.385Z,87.61
2022-10-19T00:16:12.074Z,87.34
2022-10-19T00:18:16.786Z,87.12
2022-10-19T00:20:21.544Z,87.10
2022-10-19T00:22:26.327Z,86.64
2022-10-19T00:24:31.013Z,86.62
2022-10-19T00:26:35.885Z,86.46
2022-10-19T00:28:40.637Z,86.46
2022-10-19T00:30:45.483Z,86.27
2022-10-19T00:32:50.170Z,86.07
2022-10-19T00:34:54.826Z,86.06
2022-10-19T00:36:59.483Z,86.23
2022-10-19T00:39:06.348Z,86.39
2022-10-19T00:41:10.997Z,86.43
2022-10-19T00:43:22.506Z,86.39
2022-10-19T00:45:27.247Z,86.19
2022-10-19T00:47:32.670Z,86.21
2022-10-19T00:49:40.842Z,85.87
2022-10-19T00:51:48.284Z,85.80
2022-10-19T00:53:53.312Z,85.81
2022-10-19T00:56:02.683Z,85.68
2022-10-19T00:58:07.619Z,85.84
2022-10-19T01:00:13.257Z,85.88
2022-10-19T01:02:17.997Z,85.75
2022-10-19T01:04:24.691Z,85.64
2022-10-19T01:06:29.762Z,85.87
2022-10-19T01:08:34.413Z,85.77
2022-10-19T01:10:57.954Z,85.82
2022-10-19T01:13:20.243Z,85.66
2022-10-19T01:15:32.754Z,85.66
2022-10-19T01:17:49.668Z,85.60
2022-10-19T01:20:24.142Z,85.62
2022-10-19T01:22:39.265Z,85.43
2022-10-19T01:24:56.606Z,85.49
2022-10-19T01:27:35.649Z,85.35
2022-10-19T01:30:01.868Z,85.25
2022-10-19T01:32:11.259Z,85.10
2022-10-19T01:34:24.466Z,84.91
2022-10-19T01:36:39.431Z,84.87
2022-10-19T01:38:51.131Z,84.69
2022-10-19T01:41:04.241Z,84.63
2022-10-19T01:43:17.694Z,84.53
2022-10-19T01:45:27.380Z,84.22
2022-10-19T01:47:38.378Z,84.29
2022-10-19T01:49:47.248Z,84.07
2022-10-19T01:54:09.377Z,83.90
2022-10-19T01:56:16.896Z,83.60
2022-10-19T01:58:27.146Z,83.50
2022-10-19T02:00:35.668Z,83.40
2022-10-19T02:02:45.552Z,83.34
2022-10-19T02:04:51.855Z,83.16
2022-10-19T02:06:56.956Z,83.37
2022-10-19T02:09:01.699Z,83.28
2022-10-19T02:11:06.535Z,83.29
2022-10-19T02:13:13.643Z,83.11
2022-10-19T02:15:22.605Z,83.14
2022-10-19T02:17:31.248Z,83.09
2022-10-19T02:19:35.983Z,82.98
2022-10-19T02:21:41.180Z,83.02
2022-10-19T02:23:47.515Z,83.10
2022-10-19T02:25:54.702Z,83.07
2022-10-19T02:28:02.646Z,83.07
2022-10-19T02:30:09.716Z,83.18
2022-10-19T02:32:14.517Z,83.17
2022-10-19T02:34:19.192Z,83.14
2022-10-19T02:36:23.913Z,83.10
2022-10-19T02:38:29.033Z,83.39
2022-10-19T02:40:39.953Z,83.42
2022-10-19T02:42:48.586Z,83.49
2022-10-19T02:44:59.838Z,83.72
2022-10-19T02:47:10.974Z,83.82
2022-10-19T02:49:16.319Z,83.87
2022-10-19T02:51:32.857Z,83.98
2022-10-19T02:53:37.433Z,83.96
2022-10-19T02:55:42.817Z,84.28
2022-10-19T02:57:47.494Z,84.41
2022-10-19T02:59:52.523Z,84.31
2022-10-19T03:01:57.128Z,84.45
2022-10-19T03:04:01.753Z,84.65
2022-10-19T03:06:06.372Z,84.71
2022-10-19T03:08:11.010Z,84.79
2022-10-19T03:10:15.820Z,84.97
2022-10-19T03:12:20.709Z,84.89
2022-10-19T03:14:25.471Z,84.93
2022-10-19T03:16:30.123Z,85.01
2022-10-19T03:18:34.826Z,85.14
2022-10-19T03:20:39.494Z,85.22
2022-10-19T03:22:44.186Z,85.30
2022-10-19T03:24:48.930Z,85.42
2022-10-19T03:26:53.662Z,85.74
2022-10-19T03:28:58.344Z,85.72
2022-10-19T03:31:03.028Z,86.14
2022-10-19T03:33:07.766Z,86.32
2022-10-19T03:35:12.505Z,86.36
2022-10-19T03:37:17.184Z,86.50
2022-10-19T03:39:21.767Z,86.68
2022-10-19T03:41:28.462Z,86.85
2022-10-19T03:43:33.209Z,86.88
2022-10-19T03:45:37.904Z,86.85
2022-10-19T03:47:42.503Z,86.71
2022-10-19T03:49:47.165Z,86.58
2022-10-19T03:51:51.903Z,86.62
2022-10-19T03:53:58.427Z,86.65
2022-10-19T03:56:07.632Z,86.48
2022-10-19T03:58:12.298Z,86.45
2022-10-19T04:00:17.542Z,86.54
2022-10-19T04:02:22.174Z,86.40
2022-10-19T04:04:26.946Z,86.32
2022-10-19T04:06:35.776Z,86.26
2022-10-19T04:08:40.795Z,86.38
2022-10-19T04:10:45.475Z,86.52
2022-10-19T04:12:53.734Z,86.36
2022-10-19T04:14:58.684Z,86.43
2022-10-19T04:17:03.805Z,86.52
2022-10-19T04:19:08.751Z,86.46
2022-10-19T04:21:23.375Z,86.38
2022-10-19T04:23:30.948Z,86.70
2022-10-19T04:25:35.626Z,86.48
2022-10-19T04:27:40.197Z,86.68
2022-10-19T04:29:44.881Z,86.66
2022-10-19T04:31:50.802Z,86.72
2022-10-19T04:33:55.602Z,86.58
2022-10-19T04:36:02.029Z,86.70
2022-10-19T04:38:06.667Z,86.85
2022-10-19T04:40:15.035Z,86.53
2022-10-19T04:42:19.883Z,86.67
2022-10-19T04:46:34.499Z,86.90
2022-10-19T04:48:40.217Z,86.76
2022-10-19T04:50:44.850Z,87.00
2022-10-19T04:52:57.672Z,86.92
2022-10-19T04:55:02.298Z,87.36
2022-10-19T04:57:07.004Z,87.53
2022-10-19T04:59:12.024Z,87.68
2022-10-19T05:01:21.140Z,87.94
2022-10-19T05:03:25.938Z,87.81
2022-10-19T05:05:31.236Z,87.93
2022-10-19T05:07:36.065Z,88.14
2022-10-19T05:09:40.944Z,88.36
2022-10-19T05:11:45.569Z,88.62
2022-10-19T05:13:51.007Z,88.66
2022-10-19T05:16:00.711Z,88.91
2022-10-19T05:18:05.544Z,89.14
2022-10-19T05:20:11.576Z,89.40
2022-10-19T05:22:16.222Z,89.94
2022-10-19T05:24:20.770Z,89.79
2022-10-19T05:26:26.695Z,90.12
2022-10-19T05:28:32.239Z,90.47
2022-10-19T05:30:36.842Z,90.31
2022-10-19T05:32:41.531Z,90.18
2022-10-19T05:34:46.298Z,90.21
2022-10-19T05:36:50.888Z,89.89
2022-10-19T05:38:57.764Z,89.89
2022-10-19T05:41:02.440Z,89.81
2022-10-19T05:43:06.977Z,89.59
2022-10-19T05:45:12.307Z,89.72
2022-10-19T05:47:16.996Z,89.37
2022-10-19T05:49:23.309Z,89.40
2022-10-19T05:51:28.531Z,89.36
2022-10-19T05:53:34.459Z,89.10
2022-10-19T05:55:39.123Z,89.24
2022-10-19T05:57:43.814Z,88.99
2022-10-19T05:59:48.473Z,89.05
2022-10-19T06:01:53.130Z,88.91
2022-10-19T06:03:59.264Z,88.97
2022-10-19T06:06:06.350Z,88.88
2022-10-19T06:08:10.988Z,89.01
2022-10-19T06:10:18.632Z,89.40
2022-10-19T06:12:25.067Z,88.90
2022-10-19T06:14:30.055Z,88.85
2022-10-19T06:16:35.247Z,88.83
2022-10-19T06:18:40.269Z,88.58
2022-10-19T06:20:45.483Z,88.67
2022-10-19T06:22:50.017Z,88.52
2022-10-19T06:24:54.611Z,88.43
2022-10-19T06:26:59.232Z,88.54
2022-10-19T06:29:05.188Z,88.41
2022-10-19T06:31:10.628Z,88.41
2022-10-19T06:33:15.350Z,88.17
2022-10-19T06:35:20.300Z,88.24
2022-10-19T06:37:24.949Z,87.74
2022-10-19T06:39:29.642Z,87.56
2022-10-19T06:41:34.628Z,87.39
2022-10-19T06:43:54.151Z,87.09
2022-10-19T06:45:58.984Z,86.94
2022-10-19T06:48:06.803Z,86.46
2022-10-19T06:50:12.734Z,86.02
2022-10-19T06:52:17.391Z,85.56
2022-10-19T06:54:22.050Z,85.22
2022-10-19T06:56:27.185Z,85.36
2022-10-19T06:58:34.406Z,84.83
2022-10-19T07:00:39.120Z,84.59
2022-10-19T07:02:43.899Z,84.64
2022-10-19T07:04:48.531Z,84.33
2022-10-19T07:06:53.229Z,84.17
2022-10-19T07:08:58.015Z,84.11
2022-10-19T07:11:06.121Z,84.27
2022-10-19T07:13:10.872Z,83.85
2022-10-19T07:15:15.845Z,83.87
2022-10-19T07:17:20.529Z,83.68
2022-10-19T07:19:27.363Z,83.62
2022-10-19T07:21:32.071Z,83.56
2022-10-19T07:23:38.796Z,83.12
2022-10-19T07:25:43.397Z,83.10
2022-10-19T07:27:48.043Z,82.77
2022-10-19T07:29:52.728Z,82.62
2022-10-19T07:31:57.379Z,82.31
2022-10-19T07:34:03.952Z,82.15
2022-10-19T07:36:10.536Z,81.67
2022-10-19T07:38:15.271Z,81.39
2022-10-19T07:40:19.970Z,81.13
2022-10-19T07:42:24.601Z,80.19
2022-10-19T07:44:29.487Z,79.88
2022-10-19T07:46:34.346Z,79.60
2022-10-19T07:48:38.999Z,79.43
2022-10-19T07:50:48.955Z,78.43
2022-10-19T07:52:54.603Z,77.85
2022-10-19T07:54:59.324Z,78.11
2022-10-19T07:57:04.062Z,77.43
2022-10-19T07:59:09.729Z,76.86
2022-10-19T08:01:16.888Z,76.55
2022-10-19T08:05:46.353Z,76.18
2022-10-19T08:07:51.010Z,75.94
2022-10-19T08:09:56.200Z,75.49
2022-10-19T08:12:00.965Z,74.60
2022-10-19T08:14:05.630Z,74.78
2022-10-19T08:16:23.287Z,75.06
2022-10-19T08:20:42.471Z,74.09
2022-10-19T08:22:47.299Z,73.81
2022-10-19T08:24:51.969Z,73.40
2022-10-19T08:26:57.062Z,72.96
2022-10-19T08:29:02.686Z,72.32
2022-10-19T08:31:14.040Z,71.53
2022-10-19T08:33:18.669Z,70.98
2022-10-19T08:35:23.338Z,70.17
2022-10-19T08:37:40.811Z,70.19
2022-10-19T08:39:49.730Z,70.02
2022-10-19T08:42:03.438Z,69.90
2022-10-19T08:44:26.426Z,68.93
2022-10-19T08:46:42.993Z,68.94
2022-10-19T08:48:47.735Z,68.83
2022-10-19T08:50:53.076Z,68.98
2022-10-19T08:53:04.433Z,68.15
2022-10-19T08:55:20.418Z,68.59
2022-10-19T08:57:37.468Z,68.25
2022-10-19T08:59:49.308Z,68.37
2022-10-19T09:01:57.264Z,68.83
2022-10-19T09:04:06.330Z,68.55
2022-10-19T09:06:20.703Z,68.78
2022-10-19T09:08:25.842Z,68.97
2022-10-19T09:10:35.640Z,68.97
2022-10-19T09:12:48.045Z,68.75
2022-10-19T09:14:59.175Z,68.06
2022-10-19T09:17:10.590Z,67.74
2022-10-19T09:19:21.715Z,67.88
2022-10-19T09:21:38.037Z,68.06
2022-10-19T09:23:57.988Z,68.15
2022-10-19T09:26:03.415Z,68.30
2022-10-19T09:28:33.874Z,68.30
2022-10-19T09:30:47.148Z,68.80
2022-10-19T09:32:58.772Z,69.07
2022-10-19T09:35:05.761Z,69.15
2022-10-19T09:37:14.332Z,69.38
2022-10-19T09:39:28.621Z,69.55
2022-10-19T09:41:34.855Z,69.74
2022-10-19T09:43:42.427Z,69.87
2022-10-19T09:45:51.449Z,69.98
2022-10-19T09:47:58.996Z,70.29
2022-10-19T09:50:20.040Z,70.32
2022-10-19T09:52:37.901Z,70.53
2022-10-19T09:54:42.594Z,70.64
2022-10-19T09:56:54.647Z,70.37
2022-10-19T09:58:59.922Z,70.53
2022-10-19T10:01:05.096Z,70.47
2022-10-19T10:03:22.340Z,70.23
2022-10-19T10:05:33.739Z,69.90
2022-10-19T10:07:39.999Z,69.50
2022-10-19T10:09:45.393Z,69.07
2022-10-19T10:11:51.468Z,67.18
2022-10-19T10:13:58.322Z,66.83
2022-10-19T10:16:07.429Z,66.41
2022-10-19T10:18:15.959Z,66.20
2022-10-19T10:20:31.552Z,66.52
2022-10-19T10:22:37.211Z,66.30
2022-10-19T10:24:54.230Z,66.48
2022-10-19T10:27:01.199Z,66.92
2022-10-19T10:29:19.383Z,67.22
2022-10-19T10:31:27.828Z,67.25
2022-10-19T10:33:45.366Z,67.24
2022-10-19T10:35:52.212Z,67.12
2022-10-19T10:38:07.707Z,66.85
2022-10-19T10:40:23.721Z,66.88
2022-10-19T10:42:34.917Z,66.28
2022-10-19T10:44:44.759Z,65.88
2022-10-19T10:46:55.649Z,65.89
2022-10-19T10:49:02.245Z,65.82
2022-10-19T10:51:18.919Z,64.56
2022-10-19T10:53:40.827Z,64.37
2022-10-19T10:55:57.001Z,64.36
2022-10-19T10:58:13.258Z,64.20
2022-10-19T11:00:20.495Z,64.39
2022-10-19T11:02:35.584Z,64.46
2022-10-19T11:04:48.685Z,64.34
2022-10-19T11:07:01.706Z,64.14
2022-10-19T11:09:13.243Z,64.11
2022-10-19T11:11:21.423Z,64.20
2022-10-19T11:13:31.608Z,63.86
2022-10-19T11:15:46.050Z,64.05
2022-10-19T11:17:59.787Z,64.39
2022-10-19T11:20:11.994Z,63.92
2022-10-19T11:22:27.544Z,63.70
2022-10-19T11:24:45.095Z,63.11
2022-10-19T11:27:06.062Z,63.58
2022-10-19T11:29:29.407Z,63.45
2022-10-19T11:31:44.674Z,63.50
2022-10-19T11:34:00.307Z,62.33
2022-10-19T11:36:11.608Z,61.21
2022-10-19T11:38:34.158Z,61.59
2022-10-19T11:40:59.660Z,61.45
2022-10-19T11:43:14.611Z,61.01
2022-10-19T11:45:28.361Z,61.03
2022-10-19T11:47:47.555Z,60.75
2022-10-19T11:50:02.872Z,60.60
2022-10-19T11:52:16.638Z,60.76
2022-10-19T11:54:42.574Z,60.50
2022-10-19T11:57:02.858Z,60.18
2022-10-19T11:59:23.008Z,59.95
2022-10-19T12:01:41.843Z,59.53
2022-10-19T12:04:10.999Z,59.54
2022-10-19T12:06:23.626Z,58.64
2022-10-19T12:08:43.592Z,56.68
2022-10-19T12:10:58.075Z,56.35
2022-10-19T12:13:08.933Z,56.10
2022-10-19T12:15:23.227Z,56.16
2022-10-19T12:17:31.563Z,56.75
2022-10-19T12:19:41.885Z,57.01
2022-10-19T12:21:48.618Z,56.38
2022-10-19T12:23:55.265Z,56.25
2022-10-19T12:26:03.550Z,55.26
2022-10-19T12:28:10.925Z,55.49
2022-10-19T12:30:18.846Z,54.75
2022-10-19T12:32:24.993Z,54.30
2022-10-19T12:34:37.033Z,53.72
2022-10-19T12:36:51.636Z,52.67
2022-10-19T12:39:04.470Z,52.95
2022-10-19T12:41:15.917Z,53.36
2022-10-19T12:43:27.003Z,53.69
2022-10-19T12:45:34.236Z,53.61
2022-10-19T12:47:39.129Z,53.74
2022-10-19T12:49:49.447Z,53.98
2022-10-19T12:51:58.485Z,54.03
2022-10-19T12:54:12.695Z,54.47
2022-10-19T12:56:27.085Z,54.61
2022-10-19T12:58:41.510Z,55.52
2022-10-19T13:00:59.759Z,55.88
2022-10-19T13:03:15.665Z,55.96
2022-10-19T13:05:25.393Z,56.48
2022-10-19T13:07:37.487Z,57.05
2022-10-19T13:09:45.717Z,57.42
2022-10-19T13:12:22.480Z,57.60
2022-10-19T13:14:48.018Z,57.98
2022-10-19T13:17:01.375Z,58.54
2022-10-19T13:19:20.013Z,59.05
2022-10-19T13:21:51.449Z,59.33
2022-10-19T13:24:35.273Z,59.39
2022-10-19T13:26:40.093Z,59.60
2022-10-19T13:28:55.700Z,59.40
2022-10-19T13:31:08.352Z,59.07
2022-10-19T13:33:44.949Z,59.17
2022-10-19T13:36:05.928Z,59.43
2022-10-19T13:38:25.761Z,59.21
2022-10-19T13:40:30.547Z,59.26
2022-10-19T13:42:35.743Z,59.27
2022-10-19T13:44:46.503Z,59.13
2022-10-19T13:47:24.273Z,59.26
2022-10-19T13:49:48.385Z,59.38
2022-10-19T13:52:16.375Z,58.77
2022-10-19T13:54:38.556Z,58.36
2022-10-19T13:57:06.429Z,58.69
2022-10-19T13:59:32.135Z,59.07
2022-10-19T14:01:51.021Z,59.09
2022-10-19T14:04:18.935Z,59.51
2022-10-19T14:06:30.915Z,59.82
2022-10-19T14:08:59.925Z,59.81
2022-10-19T14:11:12.103Z,60.02
2022-10-19T14:13:17.273Z,59.94
2022-10-19T14:15:26.056Z,60.13
2022-10-19T14:17:32.734Z,60.36
2022-10-19T14:19:45.737Z,60.40
2022-10-19T14:21:50.451Z,60.42
2022-10-19T14:23:55.285Z,60.70
2022-10-19T14:26:01.913Z,60.73
2022-10-19T14:28:08.273Z,60.75
2022-10-19T14:30:22.994Z,60.43
2022-10-19T14:32:29.457Z,60.11
2022-10-19T14:34:34.203Z,59.96
2022-10-19T14:36:45.011Z,59.44
2022-10-19T14:38:52.377Z,59.10
2022-10-19T14:40:57.104Z,59.06
2022-10-19T14:43:03.018Z,59.48
2022-10-19T14:45:14.481Z,59.85
2022-10-19T14:47:23.646Z,60.03
2022-10-19T14:49:28.367Z,60.12
2022-10-19T14:51:37.336Z,60.47
2022-10-19T14:53:46.831Z,60.65
2022-10-19T14:55:54.911Z,61.13
2022-10-19T14:58:00.224Z,61.30
2022-10-19T15:00:09.740Z,61.44
2022-10-19T15:02:23.989Z,61.58
2022-10-19T15:04:31.439Z,62.02
2022-10-19T15:06:37.696Z,61.86
2022-10-19T15:08:46.065Z,62.01
2022-10-19T15:10:51.520Z,62.11
2022-10-19T15:13:01.198Z,62.25
2022-10-19T15:15:14.164Z,62.41
2022-10-19T15:17:27.843Z,62.30
2022-10-19T15:19:40.029Z,62.52
2022-10-19T15:21:45.058Z,62.71
2022-10-19T15:23:51.693Z,62.72
2022-10-19T15:26:03.092Z,62.56
2022-10-19T15:28:36.117Z,61.93
2022-10-19T15:30:43.818Z,61.49
2022-10-19T15:32:51.079Z,61.18
2022-10-19T15:34:55.827Z,60.73
2022-10-19T15:37:01.646Z,60.61
2022-10-19T15:39:18.282Z,60.29
2022-10-19T15:41:32.039Z,60.07
2022-10-19T15:43:45.548Z,60.09
2022-10-19T15:46:00.975Z,59.71
2022-10-19T15:48:26.562Z,59.42
2022-10-19T15:50:40.978Z,59.24
2022-10-19T15:52:45.643Z,58.89
2022-10-19T15:54:51.678Z,59.20
2022-10-19T15:56:56.494Z,58.97
2022-10-19T15:59:03.555Z,59.09
2022-10-19T16:01:15.682Z,58.98
2022-10-19T16:03:21.079Z,59.08
2022-10-19T16:05:26.081Z,59.32
2022-10-19T16:07:33.815Z,59.09
2022-10-19T16:09:38.859Z,59.36
2022-10-19T16:11:44.118Z,59.34
2022-10-19T16:13:49.451Z,59.59
2022-10-19T16:16:10.597Z,59.41
2022-10-19T16:18:16.548Z,59.43
2022-10-19T16:20:26.191Z,59.50
2022-10-19T16:22:33.677Z,59.55
2022-10-19T16:24:39.386Z,59.84
2022-10-19T16:26:44.946Z,59.85
2022-10-19T16:28:50.145Z,59.82
2022-10-19T16:30:55.769Z,59.59
2022-10-19T16:33:01.188Z,59.72
2022-10-19T16:35:07.783Z,59.86
2022-10-19T16:37:12.896Z,59.84
2022-10-19T16:39:18.049Z,59.47
2022-10-19T16:41:23.480Z,59.47
2022-10-19T16:43:29.539Z,59.62
2022-10-19T16:45:34.571Z,59.63
2022-10-19T16:47:39.402Z,59.84
2022-10-19T16:49:44.691Z,59.77
2022-10-19T16:51:51.982Z,59.80
2022-10-19T16:54:00.419Z,60.01
2022-10-19T16:56:08.068Z,59.78
2022-10-19T16:58:13.710Z,59.54
2022-10-19T17:00:19.115Z,59.58
2022-10-19T17:02:24.684Z,59.57
2022-10-19T17:04:30.111Z,59.87
2022-10-19T17:06:36.894Z,59.96
2022-10-19T17:09:14.724Z,60.08
2022-10-19T17:11:16.228Z,60.46
2022-10-19T17:13:21.119Z,60.42
2022-10-19T17:15:43.444Z,60.45
2022-10-19T17:17:49.734Z,60.35
2022-10-19T17:19:55.052Z,60.44
2022-10-19T17:22:00.749Z,60.16
2022-10-19T17:24:08.739Z,59.98
2022-10-19T17:26:16.970Z,59.77
2022-10-19T17:28:26.859Z,59.63
2022-10-19T17:30:34.053Z,59.84
2022-10-19T17:32:40.126Z,59.92
2022-10-19T17:34:46.689Z,59.56
2022-10-19T17:36:52.493Z,59.29
2022-10-19T17:39:02.224Z,59.25
2022-10-19T17:41:15.976Z,59.23
2022-10-19T17:43:25.715Z,59.63
2022-10-19T17:45:33.154Z,59.60
2022-10-19T17:47:39.562Z,59.64
2022-10-19T17:49:50.904Z,59.68
2022-10-19T17:51:58.416Z,59.50
2022-10-19T17:54:08.450Z,59.35
2022-10-19T17:56:16.506Z,59.20
2022-10-19T17:58:24.181Z,59.53
2022-10-19T18:00:32.235Z,59.60
2022-10-19T18:02:38.706Z,59.56
2022-10-19T18:04:45.242Z,59.45
2022-10-19T18:06:53.208Z,60.57
2022-10-19T18:09:00.609Z,60.65
2022-10-19T18:11:08.679Z,59.43
2022-10-19T18:13:14.659Z,59.54
2022-10-19T18:15:21.375Z,59.55
2022-10-19T18:17:27.879Z,59.04
2022-10-19T18:19:36.060Z,58.75
2022-10-19T18:21:44.450Z,58.93
2022-10-19T18:23:51.954Z,58.89
2022-10-19T18:26:01.285Z,58.84
2022-10-19T18:28:08.531Z,58.63
2022-10-19T18:30:14.895Z,58.71
2022-10-19T18:32:21.287Z,58.76
2022-10-19T18:34:30.171Z,58.60
2022-10-19T18:36:36.697Z,58.28
2022-10-19T18:38:42.900Z,58.14
2022-10-19T18:40:51.704Z,58.39
2022-10-19T18:42:58.504Z,58.23
2022-10-19T18:45:04.698Z,58.40
2022-10-19T18:47:13.420Z,57.92
2022-10-19T18:49:20.054Z,57.75
2022-10-19T18:51:27.488Z,57.76
2022-10-19T18:53:36.035Z,58.17
2022-10-19T18:55:42.925Z,58.23
2022-10-19T18:57:50.079Z,58.13
2022-10-19T18:59:59.539Z,57.79
2022-10-19T19:02:13.710Z,57.77
2022-10-19T19:04:30.083Z,57.99
2022-10-19T19:06:36.894Z,57.61
2022-10-19T19:10:55.521Z,57.85
2022-10-19T19:13:02.668Z,57.94
2022-10-19T19:15:10.185Z,58.13
2022-10-19T19:17:16.374Z,58.01
2022-10-19T19:19:23.961Z,58.22
2022-10-19T19:21:33.788Z,58.25
2022-10-19T19:23:40.401Z,58.31
2022-10-19T19:25:49.516Z,58.26
2022-10-19T19:28:02.472Z,58.26
2022-10-19T19:30:14.165Z,58.49
2022-10-19T19:32:23.707Z,58.66
2022-10-19T19:34:29.765Z,58.61
2022-10-19T19:36:37.139Z,58.67
2022-10-19T19:38:44.698Z,58.67
2022-10-19T19:40:51.526Z,58.88
2022-10-19T19:42:57.710Z,59.14
2022-10-19T19:45:04.651Z,59.01
2022-10-19T19:47:13.203Z,59.20
2022-10-19T19:49:21.538Z,59.28
2022-10-19T19:51:28.548Z,59.54
2022-10-19T19:53:34.450Z,59.73
2022-10-19T19:55:39.882Z,59.95
2022-10-19T19:57:46.254Z,60.02
2022-10-19T19:59:53.172Z,60.15
2022-10-19T20:02:02.124Z,60.24
2022-10-19T20:04:09.277Z,60.38
2022-10-19T20:06:18.729Z,60.48
2022-10-19T20:08:27.499Z,60.55
2022-10-19T20:10:33.398Z,60.63
2022-10-19T20:12:41.461Z,60.66
2022-10-19T20:14:50.583Z,60.80
2022-10-19T20:16:59.043Z,61.08
2022-10-19T20:19:08.717Z,61.21
2022-10-19T20:21:14.933Z,61.32
2022-10-19T20:23:21.256Z,61.41
2022-10-19T20:25:29.343Z,61.51
2022-10-19T20:27:38.313Z,61.77
2022-10-19T20:29:45.450Z,61.91
2022-10-19T20:31:51.121Z,62.02
2022-10-19T20:33:57.438Z,62.29
2022-10-19T20:36:08.921Z,62.19
2022-10-19T20:38:18.501Z,62.37
2022-10-19T20:40:24.429Z,62.49
2022-10-19T20:42:29.221Z,63.57
2022-10-19T20:44:36.624Z,63.89
2022-10-19T20:46:41.870Z,63.90
2022-10-19T20:48:50.988Z,63.69
2022-10-19T20:51:08.035Z,63.77
2022-10-19T20:53:13.505Z,63.55
2022-10-19T20:55:18.429Z,63.39
2022-10-19T20:57:23.545Z,63.10
2022-10-19T20:59:28.824Z,62.96
2022-10-19T21:01:35.534Z,63.25
2022-10-19T21:03:45.118Z,63.42
2022-10-19T21:05:49.899Z,63.46
2022-10-19T21:07:54.681Z,63.60
2022-10-19T21:09:59.638Z,63.92
2022-10-19T21:12:04.376Z,63.84
2022-10-19T21:14:11.817Z,63.74
2022-10-19T21:16:18.110Z,64.03
2022-10-19T21:18:22.858Z,64.25
2022-10-19T21:20:27.606Z,64.18
2022-10-19T21:22:34.551Z,64.45
2022-10-19T21:24:42.588Z,64.61
2022-10-19T21:26:47.575Z,64.47
2022-10-19T21:28:53.027Z,64.77
2022-10-19T21:31:01.611Z,64.79
2022-10-19T21:33:06.800Z,64.95
2022-10-19T21:35:11.803Z,64.90
2022-10-19T21:37:16.743Z,64.97
2022-10-19T21:39:22.432Z,65.08
2022-10-19T21:41:27.653Z,65.28
2022-10-19T21:43:32.537Z,65.43
2022-10-19T21:45:40.388Z,65.40
2022-10-19T21:47:47.234Z,65.59
2022-10-19T21:49:53.018Z,65.75
2022-10-19T21:51:58.478Z,65.81
2022-10-19T21:54:03.649Z,65.86
2022-10-19T21:56:08.627Z,65.79
2022-10-19T21:58:13.428Z,66.16
2022-10-19T22:00:18.241Z,66.15
2022-10-19T22:02:24.660Z,66.04
2022-10-19T22:04:29.558Z,66.13
2022-10-19T22:06:36.236Z,66.60
2022-10-19T22:08:44.235Z,66.72
2022-10-19T22:10:48.943Z,66.82
2022-10-19T22:12:53.703Z,66.71
2022-10-19T22:14:58.390Z,66.86
2022-10-19T22:17:03.032Z,67.14
2022-10-19T22:19:07.797Z,66.95
2022-10-19T22:21:14.939Z,67.15
2022-10-19T22:23:19.685Z,67.29
2022-10-19T22:25:24.434Z,67.18
2022-10-19T22:27:29.109Z,67.13
2022-10-19T22:29:34.609Z,67.23
2022-10-19T22:31:39.954Z,67.63
2022-10-19T22:33:45.811Z,67.84
2022-10-19T22:35:58.045Z,67.75
2022-10-19T22:38:03.233Z,67.67
2022-10-19T22:40:09.659Z,67.94
2022-10-19T22:42:14.401Z,68.42
2022-10-19T22:44:19.635Z,68.27
2022-10-19T22:46:24.494Z,68.42
2022-10-19T22:48:29.537Z,68.91
2022-10-19T22:50:34.159Z,68.53
2022-10-19T22:52:39.148Z,68.71
2022-10-19T22:54:44.113Z,68.36
2022-10-19T22:56:48.819Z,68.73
2022-10-19T22:58:53.489Z,68.51
2022-10-19T23:01:07.067Z,68.56
2022-10-19T23:03:11.935Z,68.74
2022-10-19T23:05:16.785Z,69.10
2022-10-19T23:07:21.611Z,69.32
2022-10-19T23:09:26.358Z,69.15
2022-10-19T23:11:31.045Z,69.23
2022-10-19T23:13:35.844Z,69.69
2022-10-19T23:15:43.782Z,69.63
2022-10-19T23:17:49.822Z,69.41
2022-10-19T23:19:54.547Z,69.98
2022-10-19T23:21:59.185Z,70.05
2022-10-19T23:24:03.995Z,70.34
2022-10-19T23:26:10.910Z,70.23
2022-10-19T23:28:15.627Z,70.31
2022-10-19T23:30:20.471Z,70.45
2022-10-19T23:32:25.159Z,70.54
2022-10-19T23:34:32.722Z,70.54
2022-10-19T23:36:37.357Z,70.76
2022-10-19T23:38:45.698Z,70.79
2022-10-19T23:40:50.434Z,71.12
2022-10-19T23:42:55.040Z,70.90
2022-10-19T23:44:59.650Z,70.95
2022-10-19T23:47:07.457Z,70.86
2022-10-19T23:49:12.207Z,70.88
2022-10-19T23:51:18.211Z,71.31
2022-10-19T23:53:22.814Z,71.61
2022-10-19T23:55:27.397Z,71.38
2022-10-19T23:57:32.041Z,71.86
2022-10-19T23:59:36.747Z,71.67
